Time;durP1;ratioP1;P1;durP2;ratioP2;P2;SDS_P1;SDS_P2;PMS_P1;PMS_P2;Temp;Humidity;BMP_temperature;BMP_pressure;BME280_temperature;BME280_humidity;BME280_pressure;Samples;Min_cycle;Max_cycle;Signal;HPM_P1;HPM_P2
2023/03/19 00:00:40;;;;;;;24.80;10.40;;;;;;;-128.00;-1.00;-1.00;51758;285;7504362;-29
2023/03/19 00:03:06;;;;;;;89.10;22.90;;;;;;;-128.00;-1.00;-1.00;18871;289;7504327;-33
2023/03/19 00:05:32;;;;;;;131.40;32.50;;;;;;;-128.00;-1.00;-1.00;18881;305;7504396;-32
2023/03/19 00:07:59;;;;;;;138.30;34.60;;;;;;;-128.00;-1.00;-1.00;18866;348;7504221;-30
2023/03/19 00:10:25;;;;;;;38.80;13.00;;;;;;;-128.00;-1.00;-1.00;18852;297;7504771;-30
2023/03/19 00:12:51;;;;;;;34.90;14.20;;;;;;;-128.00;-1.00;-1.00;18893;297;7505407;-33
2023/03/19 00:15:18;;;;;;;34.20;9.40;;;;;;;-128.00;-1.00;-1.00;18884;297;7504914;-29
2023/03/19 00:17:44;;;;;;;23.30;11.60;;;;;;;-128.00;-1.00;-1.00;18465;338;7506384;-33
2023/03/19 00:20:11;;;;;;;22.10;11.40;;;;;;;-128.00;-1.00;-1.00;18936;285;7504681;-32
2023/03/19 00:22:36;;;;;;;28.00;11.90;;;;;;;-128.00;-1.00;-1.00;18456;285;7504600;-34
2023/03/19 00:25:03;;;;;;;32.70;14.20;;;;;;;-128.00;-1.00;-1.00;18879;285;7505156;-31
2023/03/19 00:27:28;;;;;;;22.90;11.80;;;;;;;-128.00;-1.00;-1.00;18478;345;7504600;-33
2023/03/19 00:29:54;;;;;;;29.50;14.20;;;;;;;-128.00;-1.00;-1.00;18857;289;7504273;-33
2023/03/19 00:32:21;;;;;;;36.80;15.30;;;;;;;-128.00;-1.00;-1.00;18853;316;7504387;-31
2023/03/19 00:34:47;;;;;;;38.60;15.10;;;;;;;-128.00;-1.00;-1.00;18871;297;7505220;-33
2023/03/19 00:37:15;;;;;;;27.00;10.50;;;;;;;-128.00;-1.00;-1.00;85696;296;4504143;-32
2023/03/19 00:39:40;;;;;;;40.60;15.30;;;;;;;-128.00;-1.00;-1.00;90157;285;3004156;-29
2023/03/19 00:42:08;;;;;;;35.30;14.80;;;;;;;-128.00;-1.00;-1.00;18949;340;7504337;-33
2023/03/19 00:44:34;;;;;;;18.80;8.50;;;;;;;-128.00;-1.00;-1.00;19574;297;7503860;-29
2023/03/19 00:47:00;;;;;;;23.60;10.20;;;;;;;-128.00;-1.00;-1.00;78586;295;5645682;-33
2023/03/19 00:49:25;;;;;;;16.90;6.80;;;;;;;-128.00;-1.00;-1.00;88459;297;3003122;-37
2023/03/19 00:51:51;;;;;;;25.20;9.20;;;;;;;-128.00;-1.00;-1.00;20352;288;7506429;-30
2023/03/19 00:54:19;;;;;;;32.10;13.20;;;;;;;-128.00;-1.00;-1.00;27979;296;7449976;-28
2023/03/19 00:56:44;;;;;;;22.30;10.30;;;;;;;-128.00;-1.00;-1.00;31924;296;7504526;-28
2023/03/19 00:59:10;;;;;;;35.40;11.10;;;;;;;-128.00;-1.00;-1.00;97747;295;1003669;-32
2023/03/19 01:01:36;;;;;;;23.00;9.00;;;;;;;-128.00;-1.00;-1.00;95682;284;3003419;-28
2023/03/19 01:04:02;;;;;;;34.60;10.60;;;;;;;-128.00;-1.00;-1.00;97926;288;1003082;-32
2023/03/19 01:06:28;;;;;;;23.00;9.80;;;;;;;-128.00;-1.00;-1.00;97937;297;1003523;-28
2023/03/19 01:08:53;;;;;;;28.00;10.20;;;;;;;-128.00;-1.00;-1.00;97790;295;1004654;-36
2023/03/19 01:11:20;;;;;;;29.70;10.20;;;;;;;-128.00;-1.00;-1.00;88986;288;3294470;-33
2023/03/19 01:13:47;;;;;;;31.40;12.20;;;;;;;-128.00;-1.00;-1.00;20267;288;7504747;-33
2023/03/19 01:16:13;;;;;;;31.90;12.70;;;;;;;-128.00;-1.00;-1.00;18889;288;7504667;-33
2023/03/19 01:18:39;;;;;;;29.40;12.30;;;;;;;-128.00;-1.00;-1.00;18864;295;7504152;-33
2023/03/19 01:21:07;;;;;;;23.90;9.20;;;;;;;-128.00;-1.00;-1.00;18864;288;7505151;-34
2023/03/19 01:23:32;;;;;;;19.50;9.60;;;;;;;-128.00;-1.00;-1.00;18469;288;7504313;-30
2023/03/19 01:25:58;;;;;;;17.40;7.30;;;;;;;-128.00;-1.00;-1.00;18476;295;7504402;-31
2023/03/19 01:28:24;;;;;;;20.60;8.80;;;;;;;-128.00;-1.00;-1.00;18467;288;7505046;-33
2023/03/19 01:30:50;;;;;;;28.50;10.80;;;;;;;-128.00;-1.00;-1.00;18460;284;7504190;-30
2023/03/19 01:33:16;;;;;;;26.20;10.60;;;;;;;-128.00;-1.00;-1.00;18467;295;7505670;-29
2023/03/19 01:35:46;;;;;;;14.50;7.30;;;;;;;-128.00;-1.00;-1.00;18512;288;7504758;-29
2023/03/19 01:38:12;;;;;;;27.60;10.70;;;;;;;-128.00;-1.00;-1.00;18458;348;7505298;-34
2023/03/19 01:40:44;;;;;;;19.40;8.30;;;;;;;-128.00;-1.00;-1.00;18489;288;7504792;-33
2023/03/19 01:43:21;;;;;;;12.00;6.30;;;;;;;-128.00;-1.00;-1.00;18453;295;7505103;-29
2023/03/19 01:45:49;;;;;;;12.50;6.50;;;;;;;-128.00;-1.00;-1.00;18448;296;7504274;-33
2023/03/19 01:48:28;;;;;;;23.00;7.50;;;;;;;-128.00;-1.00;-1.00;18478;295;7504690;-34
2023/03/19 01:50:54;;;;;;;29.00;9.20;;;;;;;-128.00;-1.00;-1.00;18468;295;7504612;-30
2023/03/19 01:53:24;;;;;;;14.40;7.20;;;;;;;-128.00;-1.00;-1.00;18450;341;7505076;-34
2023/03/19 01:55:51;;;;;;;14.30;7.70;;;;;;;-128.00;-1.00;-1.00;18493;295;7504241;-33
2023/03/19 01:58:16;;;;;;;13.50;7.20;;;;;;;-128.00;-1.00;-1.00;18493;295;7504834;-30
2023/03/19 02:00:42;;;;;;;35.70;12.00;;;;;;;-128.00;-1.00;-1.00;18860;288;7504800;-33
2023/03/19 02:03:09;;;;;;;76.10;25.60;;;;;;;-128.00;-1.00;-1.00;18854;296;7504973;-34
2023/03/19 02:05:36;;;;;;;55.50;21.00;;;;;;;-128.00;-1.00;-1.00;18873;296;7505559;-30
2023/03/19 02:08:04;;;;;;;39.70;13.70;;;;;;;-128.00;-1.00;-1.00;18461;288;7505020;-33
2023/03/19 02:10:30;;;;;;;41.50;13.60;;;;;;;-128.00;-1.00;-1.00;18464;288;7504560;-30
2023/03/19 02:12:56;;;;;;;41.90;14.70;;;;;;;-128.00;-1.00;-1.00;18877;289;7504703;-29
2023/03/19 02:15:22;;;;;;;34.00;12.40;;;;;;;-128.00;-1.00;-1.00;18871;336;7504871;-30
2023/03/19 02:17:48;;;;;;;32.80;12.70;;;;;;;-128.00;-1.00;-1.00;18844;296;7505111;-31
2023/03/19 02:20:28;;;;;;;22.50;10.50;;;;;;;-128.00;-1.00;-1.00;18856;296;7505418;-30
2023/03/19 02:23:26;;;;;;;21.70;10.80;;;;;;;-128.00;-1.00;-1.00;18464;288;7506026;-34
2023/03/19 02:26:01;;;;;;;20.10;8.30;;;;;;;-128.00;-1.00;-1.00;18467;288;7504823;-33
2023/03/19 02:28:26;;;;;;;19.30;9.30;;;;;;;-128.00;-1.00;-1.00;18470;348;7504481;-29
2023/03/19 02:30:52;;;;;;;18.90;9.40;;;;;;;-128.00;-1.00;-1.00;18866;320;7504353;-29
2023/03/19 02:33:18;;;;;;;20.20;10.80;;;;;;;-128.00;-1.00;-1.00;18855;288;7504865;-30
2023/03/19 02:35:46;;;;;;;25.40;11.40;;;;;;;-128.00;-1.00;-1.00;18852;295;7504351;-33
2023/03/19 02:38:12;;;;;;;26.90;10.70;;;;;;;-128.00;-1.00;-1.00;18475;307;7504602;-33
2023/03/19 02:40:44;;;;;;;23.10;8.50;;;;;;;-128.00;-1.00;-1.00;18468;288;7506301;-34
2023/03/19 02:43:10;;;;;;;22.30;8.70;;;;;;;-128.00;-1.00;-1.00;18479;288;7506518;-30
2023/03/19 02:45:35;;;;;;;20.40;10.60;;;;;;;-128.00;-1.00;-1.00;18457;297;7505866;-31
2023/03/19 02:48:02;;;;;;;30.80;15.10;;;;;;;-128.00;-1.00;-1.00;18451;295;7504320;-34
2023/03/19 02:50:28;;;;;;;16.40;8.90;;;;;;;-128.00;-1.00;-1.00;18462;288;7506397;-33
2023/03/19 02:52:54;;;;;;;17.10;9.30;;;;;;;-128.00;-1.00;-1.00;18848;297;7505449;-33
2023/03/19 02:55:21;;;;;;;22.00;10.70;;;;;;;-128.00;-1.00;-1.00;18852;288;7504314;-33
2023/03/19 02:57:47;;;;;;;20.70;10.90;;;;;;;-128.00;-1.00;-1.00;18846;348;7505676;-33
2023/03/19 03:00:15;;;;;;;19.70;9.90;;;;;;;-128.00;-1.00;-1.00;18864;295;7504694;-33
2023/03/19 03:02:41;;;;;;;21.30;10.20;;;;;;;-128.00;-1.00;-1.00;18478;303;7504555;-35
2023/03/19 03:05:08;;;;;;;21.20;10.00;;;;;;;-128.00;-1.00;-1.00;18470;288;7505185;-33
2023/03/19 03:07:33;;;;;;;21.50;9.60;;;;;;;-128.00;-1.00;-1.00;18474;295;7506228;-33
2023/03/19 03:09:59;;;;;;;13.30;6.10;;;;;;;-128.00;-1.00;-1.00;18480;320;7505517;-33
2023/03/19 03:12:26;;;;;;;28.10;11.50;;;;;;;-128.00;-1.00;-1.00;18433;297;7504544;-33
2023/03/19 03:14:51;;;;;;;37.00;13.50;;;;;;;-128.00;-1.00;-1.00;18466;325;7505871;-29
2023/03/19 03:17:18;;;;;;;40.00;13.90;;;;;;;-128.00;-1.00;-1.00;18468;296;7504681;-33
2023/03/19 03:19:43;;;;;;;29.90;11.30;;;;;;;-128.00;-1.00;-1.00;18474;296;7505592;-29
2023/03/19 03:22:09;;;;;;;26.00;11.50;;;;;;;-128.00;-1.00;-1.00;18904;308;7504744;-33
2023/03/19 03:24:38;;;;;;;29.00;11.90;;;;;;;-128.00;-1.00;-1.00;18863;296;7504055;-32
2023/03/19 03:27:04;;;;;;;28.40;10.70;;;;;;;-128.00;-1.00;-1.00;18476;296;7506345;-33
2023/03/19 03:29:30;;;;;;;22.70;8.70;;;;;;;-128.00;-1.00;-1.00;18490;296;7504774;-30
2023/03/19 03:31:56;;;;;;;33.60;10.40;;;;;;;-128.00;-1.00;-1.00;18487;303;7504733;-30
2023/03/19 03:34:22;;;;;;;29.00;10.50;;;;;;;-128.00;-1.00;-1.00;18504;296;7504909;-30
2023/03/19 03:36:48;;;;;;;28.70;10.80;;;;;;;-128.00;-1.00;-1.00;18867;296;7504244;-34
2023/03/19 03:39:15;;;;;;;28.70;10.30;;;;;;;-128.00;-1.00;-1.00;18871;288;7505029;-30
2023/03/19 03:41:41;;;;;;;25.30;11.50;;;;;;;-128.00;-1.00;-1.00;18880;296;7504271;-33
2023/03/19 03:44:07;;;;;;;26.80;11.20;;;;;;;-128.00;-1.00;-1.00;18847;297;7504454;-31
2023/03/19 03:46:33;;;;;;;33.20;11.70;;;;;;;-128.00;-1.00;-1.00;18864;296;7504124;-33
2023/03/19 03:49:00;;;;;;;25.40;10.60;;;;;;;-128.00;-1.00;-1.00;18912;284;7504742;-29
2023/03/19 03:51:26;;;;;;;31.00;13.20;;;;;;;-128.00;-1.00;-1.00;18872;348;7504375;-34
2023/03/19 03:53:52;;;;;;;29.00;13.90;;;;;;;-128.00;-1.00;-1.00;18864;296;7504381;-35
2023/03/19 03:56:19;;;;;;;40.30;15.20;;;;;;;-128.00;-1.00;-1.00;18479;300;7504343;-33
2023/03/19 03:58:46;;;;;;;51.20;22.10;;;;;;;-128.00;-1.00;-1.00;18890;296;7505307;-33
2023/03/19 04:01:15;;;;;;;41.70;17.60;;;;;;;-128.00;-1.00;-1.00;18459;296;7504313;-30
2023/03/19 04:03:41;;;;;;;35.70;15.50;;;;;;;-128.00;-1.00;-1.00;18498;284;7504485;-29
2023/03/19 04:06:06;;;;;;;35.80;12.30;;;;;;;-128.00;-1.00;-1.00;18476;296;7505764;-33
2023/03/19 04:08:32;;;;;;;25.50;12.70;;;;;;;-128.00;-1.00;-1.00;18480;296;7505808;-33
2023/03/19 04:10:58;;;;;;;23.70;11.00;;;;;;;-128.00;-1.00;-1.00;18481;296;7504772;-33
2023/03/19 04:13:24;;;;;;;25.70;12.80;;;;;;;-128.00;-1.00;-1.00;18878;296;7504999;-30
2023/03/19 04:15:53;;;;;;;27.30;10.90;;;;;;;-128.00;-1.00;-1.00;18893;332;7504728;-34
2023/03/19 04:18:18;;;;;;;14.60;7.40;;;;;;;-128.00;-1.00;-1.00;18460;288;7504809;-33
2023/03/19 04:20:45;;;;;;;18.30;7.80;;;;;;;-128.00;-1.00;-1.00;18491;296;7505228;-30
2023/03/19 04:23:10;;;;;;;10.80;7.30;;;;;;;-128.00;-1.00;-1.00;18462;296;7504290;-33
2023/03/19 04:25:40;;;;;;;16.80;9.00;;;;;;;-128.00;-1.00;-1.00;18878;295;7504328;-30
2023/03/19 04:28:05;;;;;;;21.30;9.00;;;;;;;-128.00;-1.00;-1.00;18490;296;7506392;-30
2023/03/19 04:30:32;;;;;;;19.00;9.10;;;;;;;-128.00;-1.00;-1.00;18876;288;7505193;-34
2023/03/19 04:32:58;;;;;;;14.10;7.90;;;;;;;-128.00;-1.00;-1.00;18852;296;7504544;-30
2023/03/19 04:35:24;;;;;;;14.80;8.20;;;;;;;-128.00;-1.00;-1.00;18892;297;7505134;-30
2023/03/19 05:16:26;;;;;;;;;;;;;;;-101.97;14.70;19881.18;36912;294;8044673;-30
2023/03/19 05:18:55;;;;;;;17.60;9.60;;;;;;;-128.00;-1.00;-1.00;56354;293;7504074;-29
2023/03/19 05:21:22;;;;;;;26.70;8.60;;;;;;;-128.00;-1.00;-1.00;18526;294;7505023;-34
2023/03/19 05:23:51;;;;;;;25.70;8.80;;;;;;;-128.00;-1.00;-1.00;78098;294;7504102;-34
2023/03/19 05:26:17;;;;;;;20.30;9.30;;;;;;;-128.00;-1.00;-1.00;97044;294;1205742;-35
2023/03/19 05:28:43;;;;;;;17.60;8.90;;;;;;;-128.00;-1.00;-1.00;78594;294;3003060;-30
2023/03/19 05:31:09;;;;;;;16.20;8.50;;;;;;;-128.00;-1.00;-1.00;20120;347;7503742;-34
2023/03/19 05:33:35;;;;;;;16.10;8.70;;;;;;;-128.00;-1.00;-1.00;19581;294;7503998;-32
2023/03/19 05:36:01;;;;;;;12.60;8.20;;;;;;;-128.00;-1.00;-1.00;19144;294;7504229;-30
2023/03/19 05:38:26;;;;;;;20.40;7.30;;;;;;;-128.00;-1.00;-1.00;18466;294;7506061;-30
2023/03/19 05:40:53;;;;;;;16.20;7.90;;;;;;;-128.00;-1.00;-1.00;18917;295;7505322;-32
2023/03/19 05:43:19;;;;;;;19.40;8.00;;;;;;;-128.00;-1.00;-1.00;18892;294;7504090;-30
2023/03/19 05:45:50;;;;;;;11.10;7.40;;;;;;;-128.00;-1.00;-1.00;18885;294;7504403;-30
2023/03/19 05:48:16;;;;;;;13.20;6.70;;;;;;;-128.00;-1.00;-1.00;18482;319;7504961;-34
2023/03/19 05:50:42;;;;;;;16.10;7.40;;;;;;;-128.00;-1.00;-1.00;18504;287;7505780;-30
2023/03/19 05:53:07;;;;;;;18.50;10.20;;;;;;;-128.00;-1.00;-1.00;18482;311;7504713;-33
2023/03/19 05:55:33;;;;;;;25.10;11.00;;;;;;;-128.00;-1.00;-1.00;18887;318;7504645;-29
2023/03/19 05:58:00;;;;;;;12.30;7.90;;;;;;;-128.00;-1.00;-1.00;18869;294;7504960;-30
2023/03/19 06:00:25;;;;;;;16.20;8.10;;;;;;;-128.00;-1.00;-1.00;18472;294;7507095;-30
2023/03/19 06:02:53;;;;;;;25.60;12.10;;;;;;;-128.00;-1.00;-1.00;18881;294;7505465;-30
2023/03/19 06:05:19;;;;;;;16.70;8.10;;;;;;;-128.00;-1.00;-1.00;18497;294;7505973;-30
2023/03/19 06:07:45;;;;;;;14.30;6.90;;;;;;;-128.00;-1.00;-1.00;18468;294;7505617;-34
2023/03/19 06:10:10;;;;;;;10.10;6.90;;;;;;;-128.00;-1.00;-1.00;18472;288;7504535;-30
2023/03/19 06:12:36;;;;;;;9.30;5.50;;;;;;;-128.00;-1.00;-1.00;18463;294;7504969;-34
2023/03/19 06:15:02;;;;;;;13.70;8.60;;;;;;;-128.00;-1.00;-1.00;18896;294;7504439;-30
2023/03/19 06:17:28;;;;;;;13.20;7.20;;;;;;;-128.00;-1.00;-1.00;18480;295;7506077;-34
2023/03/19 06:19:56;;;;;;;21.30;9.10;;;;;;;-128.00;-1.00;-1.00;18478;295;7506713;-31
2023/03/19 06:22:22;;;;;;;15.30;8.90;;;;;;;-128.00;-1.00;-1.00;18497;295;7504879;-30
2023/03/19 06:24:48;;;;;;;14.90;9.10;;;;;;;-128.00;-1.00;-1.00;18871;295;7504405;-31
2023/03/19 06:27:14;;;;;;;17.60;9.00;;;;;;;-128.00;-1.00;-1.00;18873;339;7505309;-30
2023/03/19 06:29:41;;;;;;;16.80;6.60;;;;;;;-128.00;-1.00;-1.00;18501;287;7504670;-34
2023/03/19 06:32:07;;;;;;;14.20;8.10;;;;;;;-128.00;-1.00;-1.00;18881;347;7505142;-32
2023/03/19 06:34:33;;;;;;;10.10;7.60;;;;;;;-128.00;-1.00;-1.00;18461;295;7505802;-30
2023/03/19 06:36:58;;;;;;;12.30;6.90;;;;;;;-128.00;-1.00;-1.00;18506;295;7506424;-29
2023/03/19 06:39:25;;;;;;;16.80;8.60;;;;;;;-128.00;-1.00;-1.00;18883;295;7504746;-35
2023/03/19 06:41:51;;;;;;;12.50;6.70;;;;;;;-128.00;-1.00;-1.00;18467;307;7504937;-33
2023/03/19 06:44:17;;;;;;;10.10;7.10;;;;;;;-128.00;-1.00;-1.00;18895;295;7504899;-31
2023/03/19 06:46:44;;;;;;;11.00;6.70;;;;;;;-128.00;-1.00;-1.00;18883;295;7505091;-30
2023/03/19 06:49:10;;;;;;;18.70;9.00;;;;;;;-128.00;-1.00;-1.00;18495;306;7504501;-31
2023/03/19 06:51:35;;;;;;;12.70;7.60;;;;;;;-128.00;-1.00;-1.00;18467;295;7505098;-31
2023/03/19 06:54:01;;;;;;;7.20;6.40;;;;;;;-128.00;-1.00;-1.00;18476;295;7506160;-31
2023/03/19 06:56:28;;;;;;;10.80;7.10;;;;;;;-128.00;-1.00;-1.00;18495;295;7504865;-30
2023/03/19 06:58:54;;;;;;;8.40;6.00;;;;;;;-128.00;-1.00;-1.00;18487;347;7505027;-30
2023/03/19 07:01:20;;;;;;;16.40;8.20;;;;;;;-128.00;-1.00;-1.00;18479;306;7505659;-34
2023/03/19 07:03:46;;;;;;;15.10;7.10;;;;;;;-128.00;-1.00;-1.00;18473;295;7506496;-30
2023/03/19 07:06:12;;;;;;;11.40;7.60;;;;;;;-128.00;-1.00;-1.00;18479;287;7504495;-30
2023/03/19 07:08:37;;;;;;;13.00;7.40;;;;;;;-128.00;-1.00;-1.00;18493;295;7504794;-30
2023/03/19 07:11:05;;;;;;;16.60;7.20;;;;;;;-128.00;-1.00;-1.00;18877;295;7505161;-30
2023/03/19 07:13:31;;;;;;;8.50;5.20;;;;;;;-128.00;-1.00;-1.00;18513;295;7505104;-30
2023/03/19 07:17:24;;;;;;;12.80;7.20;;;;;;;;;;100990;301;543364;-32
2023/03/19 07:19:49;;;;;;;9.90;5.30;;;;;;;;;;101045;302;23017;-32
2023/03/19 07:22:16;;;;;;;16.20;7.50;;;;;;;;;;101264;302;22997;-30
2023/03/19 07:24:41;;;;;;;12.20;6.60;;;;;;;;;;101128;302;22957;-34
2023/03/19 07:27:07;;;;;;;9.10;6.60;;;;;;;;;;101080;302;22676;-34
2023/03/19 07:29:33;;;;;;;7.10;5.30;;;;;;;;;;101228;302;22580;-29
2023/03/19 07:31:58;;;;;;;10.70;6.80;;;;;;;;;;100752;300;573507;-33
2023/03/19 07:34:24;;;;;;;11.90;6.30;;;;;;;;;;101015;300;22793;-29
2023/03/19 07:36:50;;;;;;;7.30;5.80;;;;;;;;;;101070;300;22665;-30
2023/03/19 07:39:15;;;;;;;10.10;6.00;;;;;;;;;;101068;300;22680;-34
2023/03/19 07:41:43;;;;;;;10.50;5.80;;;;;;;;;;101387;300;22885;-34
2023/03/19 07:44:09;;;;;;;8.90;6.60;;;;;;;;;;101286;300;24269;-34
2023/03/19 07:46:35;;;;;;;7.00;5.80;;;;;;;;;;101093;289;24213;-32
2023/03/19 07:49:01;;;;;;;12.40;6.90;;;;;;;;;;101293;289;22583;-36
2023/03/19 07:51:26;;;;;;;15.30;7.20;;;;;;;;;;101059;289;22617;-35
2023/03/19 07:53:52;;;;;;;14.70;6.20;;;;;;;;;;101091;289;22584;-28
2023/03/19 07:56:17;;;;;;;9.20;4.90;;;;;;;;;;101270;289;22583;-29
2023/03/19 07:58:43;;;;;;;7.50;5.30;;;;;;;;;;100968;289;22578;-36
2023/03/19 08:01:08;;;;;;;9.30;5.60;;;;;;;;;;100954;302;22579;-30
2023/03/19 08:03:34;;;;;;;6.90;6.00;;;;;;;;;;100953;301;22878;-34
2023/03/19 08:06:00;;;;;;;12.00;6.00;;;;;;;;;;101043;300;22676;-34
2023/03/19 08:08:25;;;;;;;9.00;6.00;;;;;;;;;;101235;289;22892;-34
2023/03/19 08:10:55;;;;;;;10.70;6.40;;;;;;;;;;101147;301;22887;-33
2023/03/19 08:13:21;;;;;;;17.10;9.10;;;;;;;;;;101264;289;22590;-29
2023/03/19 08:15:48;;;;;;;22.40;9.00;;;;;;;;;;101272;301;24246;-30
2023/03/19 08:18:13;;;;;;;16.30;8.70;;;;;;;;;;101239;300;24148;-37
2023/03/19 08:20:39;;;;;;;11.70;8.30;;;;;;;;;;101186;301;22978;-35
2023/03/19 08:23:06;;;;;;;8.60;6.90;;;;;;;;;;101034;289;22584;-34
2023/03/19 08:25:31;;;;;;;9.30;6.00;;;;;;;;;;100983;289;22590;-30
2023/03/19 08:27:58;;;;;;;11.40;5.00;;;;;;;;;;101196;300;24149;-32
2023/03/19 08:30:23;;;;;;;9.20;5.70;;;;;;;;;;101092;301;23013;-35
2023/03/19 08:32:49;;;;;;;10.30;6.90;;;;;;;;;;101110;300;22966;-35
2023/03/19 08:35:15;;;;;;;10.90;6.00;;;;;;;;;;101116;300;22678;-31
2023/03/19 08:37:40;;;;;;;11.40;5.40;;;;;;;;;;101064;302;22603;-35
2023/03/19 08:40:06;;;;;;;10.40;4.50;;;;;;;;;;101041;300;22604;-34
2023/03/19 08:42:33;;;;;;;6.20;4.50;;;;;;;;;;101151;300;22608;-35
2023/03/19 08:44:59;;;;;;;8.20;4.50;;;;;;;;;;101230;299;22678;-31
2023/03/19 08:47:24;;;;;;;6.20;4.20;;;;;;;;;;101171;287;22577;-35
2023/03/19 08:49:50;;;;;;;8.10;4.80;;;;;;;;;;101249;299;22903;-30
2023/03/19 08:52:16;;;;;;;10.60;6.10;;;;;;;;;;101317;299;24511;-31
2023/03/19 08:54:42;;;;;;;14.40;6.80;;;;;;;;;;101358;300;24183;-30
2023/03/19 08:57:07;;;;;;;7.90;4.60;;;;;;;;;;101229;288;22994;-34
2023/03/19 08:59:33;;;;;;;5.60;4.80;;;;;;;;;;101359;287;22660;-32
2023/03/19 09:01:59;;;;;;;7.20;4.90;;;;;;;;;;101143;288;22666;-38
2023/03/19 09:04:24;;;;;;;8.20;3.90;;;;;;;;;;101436;287;22679;-39
2023/03/19 09:06:50;;;;;;;5.50;4.20;;;;;;;;;;101266;287;22906;-36
2023/03/19 09:09:17;;;;;;;7.80;5.10;;;;;;;;;;101082;300;24146;-33
2023/03/19 09:11:42;;;;;;;6.70;4.70;;;;;;;;;;101337;287;24268;-34
2023/03/19 09:14:10;;;;;;;5.10;3.90;;;;;;;;;;101179;287;22578;-32
2023/03/19 09:16:36;;;;;;;9.50;6.20;;;;;;;;;;101292;300;22771;-30
2023/03/19 09:19:01;;;;;;;17.70;10.40;;;;;;;;;;101111;300;22812;-29
2023/03/19 09:21:27;;;;;;;10.00;6.60;;;;;;;;;;101174;288;23011;-30
2023/03/19 09:23:53;;;;;;;7.60;5.20;;;;;;;;;;101426;287;22886;-34
2023/03/19 09:26:18;;;;;;;12.20;6.70;;;;;;;;;;101295;287;22596;-30
2023/03/19 09:28:44;;;;;;;10.40;7.10;;;;;;;;;;101092;288;23011;-37
2023/03/19 09:31:10;;;;;;;9.80;6.30;;;;;;;;;;101206;288;25163;-34
2023/03/19 09:33:35;;;;;;;18.10;7.50;;;;;;;;;;101412;299;22676;-30
2023/03/19 09:36:01;;;;;;;15.40;8.50;;;;;;;;;;101289;299;22580;-35
2023/03/19 09:38:27;;;;;;;17.80;12.20;;;;;;;;;;101349;287;22820;-31
2023/03/19 09:41:00;;;;;;;23.60;13.90;;;;;;;;;;101321;287;24197;-35
2023/03/19 09:43:35;;;;;;;17.40;9.70;;;;;;;;;;101297;287;24150;-31
2023/03/19 09:46:02;;;;;;;18.20;15.20;;;;;;;;;;101477;299;22855;-37
2023/03/19 09:48:33;;;;;;;10.30;7.70;;;;;;;;;;101121;288;22889;-31
2023/03/19 09:50:59;;;;;;;6.80;4.40;;;;;;;;;;101294;287;22988;-35
2023/03/19 09:53:36;;;;;;;5.40;4.60;;;;;;;;;;101321;299;22846;-31
2023/03/19 09:56:02;;;;;;;8.40;6.40;;;;;;;;;;101204;287;22679;-33
2023/03/19 09:58:30;;;;;;;7.00;4.80;;;;;;;;;;101246;287;26314;-36
2023/03/19 10:00:55;;;;;;;8.80;5.20;;;;;;;;;;101429;287;22660;-35
2023/03/19 10:03:29;;;;;;;10.00;6.50;;;;;;;;;;101451;299;22889;-35
2023/03/19 10:06:15;;;;;;;9.20;7.50;;;;;;;;;;101390;300;22614;-34
2023/03/19 10:08:48;;;;;;;12.50;8.40;;;;;;;;;;101268;287;22582;-34
2023/03/19 10:11:14;;;;;;;;;;;;;;;;;;101278;287;22701;-32
2023/03/19 10:13:47;;;;;;;15.80;6.70;;;;;;;;;;101277;299;22584;-35
2023/03/19 10:16:15;;;;;;;30.10;13.60;;;;;;;;;;101301;287;22889;-31
2023/03/19 10:18:43;;;;;;;11.00;7.30;;;;;;;;;;101370;296;24134;-35
2023/03/19 10:21:20;;;;;;;6.20;4.60;;;;;;;;;;101532;284;22674;-32
2023/03/19 10:23:52;;;;;;;7.20;4.80;;;;;;;;;;101470;296;22737;-36
2023/03/19 10:26:18;;;;;;;8.30;5.30;;;;;;;;;;101663;284;22580;-31
2023/03/19 10:28:45;;;;;;;17.00;9.10;;;;;;;;;;101390;296;23113;-36
2023/03/19 10:31:22;;;;;;;12.80;6.60;;;;;;;;;;101494;296;22734;-31
2023/03/19 10:34:00;;;;;;;10.40;7.80;;;;;;;;;;101554;296;22680;-30
2023/03/19 10:36:26;;;;;;;7.30;6.00;;;;;;;;;;101578;296;22576;-34
2023/03/19 10:38:52;;;;;;;11.40;7.20;;;;;;;;;;101332;296;22799;-31
2023/03/19 10:41:29;;;;;;;5.70;4.90;;;;;;;;;;101469;284;23010;-38
2023/03/19 10:43:55;;;;;;;150.90;47.30;;;;;;;;;;101509;296;22580;-30
2023/03/19 10:46:21;;;;;;;27.40;14.80;;;;;;;;;;101417;296;22578;-33
2023/03/19 10:48:46;;;;;;;9.70;6.20;;;;;;;;;;101372;297;22595;-35
2023/03/19 10:51:13;;;;;;;7.20;5.80;;;;;;;;;;101425;296;24155;-30
2023/03/19 10:53:38;;;;;;;7.30;6.10;;;;;;;;;;101361;295;22576;-31
2023/03/19 10:56:16;;;;;;;7.10;6.50;;;;;;;;;;101383;296;22574;-31
2023/03/19 10:58:42;;;;;;;10.70;7.60;;;;;;;;;;101368;296;24077;-35
2023/03/19 11:01:09;;;;;;;82.90;49.20;;;;;;;;;;101404;288;22877;-37
2023/03/19 11:03:38;;;;;;;130.40;63.80;;;;;;;;;;101384;284;22992;-30
2023/03/19 11:46:12;;;;;;;90.10;30.70;;;;;;;-98.71;5.93;19870.07;98324;295;1543585;-35
2023/03/19 11:49:02;;;;;;;79.50;30.30;;;;;;;-128.00;-1.00;-1.00;97644;295;1003075;-36
2023/03/19 11:51:44;;;;;;;95.10;38.30;;;;;;;-128.00;-1.00;-1.00;97933;295;1003349;-30
2023/03/19 11:54:23;;;;;;;54.10;24.00;;;;;;;-128.00;-1.00;-1.00;97858;295;1003725;-31
2023/03/19 11:57:02;;;;;;;45.70;19.80;;;;;;;-128.00;-1.00;-1.00;97918;295;1003864;-31
2023/03/19 11:59:48;;;;;;;8.30;5.90;;;;;;;-128.00;-1.00;-1.00;97914;295;1003112;-31
2023/03/19 12:02:38;;;;;;;5.60;4.30;;;;;;;-128.00;-1.00;-1.00;97828;286;1004055;-34
2023/03/19 12:05:27;;;;;;;7.30;4.70;;;;;;;-128.00;-1.00;-1.00;97896;295;1003477;-31
2023/03/19 12:08:04;;;;;;;6.40;4.80;;;;;;;-128.00;-1.00;-1.00;98023;295;1003961;-33
2023/03/19 12:10:38;;;;;;;8.90;4.20;;;;;;;-128.00;-1.00;-1.00;97909;294;1002597;-34
2023/03/19 12:13:26;;;;;;;5.20;4.50;;;;;;;-128.00;-1.00;-1.00;97904;295;1002897;-36
2023/03/19 12:16:07;;;;;;;5.50;4.40;;;;;;;-128.00;-1.00;-1.00;97833;294;1002821;-31
2023/03/19 12:18:47;;;;;;;5.50;4.70;;;;;;;-128.00;-1.00;-1.00;97977;286;1002950;-31
2023/03/19 12:21:37;;;;;;;5.40;3.90;;;;;;;-128.00;-1.00;-1.00;97776;295;1003890;-31
2023/03/19 12:24:11;;;;;;;16.80;5.90;;;;;;;-128.00;-1.00;-1.00;97786;295;1004974;-30
2023/03/19 12:27:02;;;;;;;5.10;4.10;;;;;;;-128.00;-1.00;-1.00;96807;286;1181908;-30
2023/03/19 12:29:51;;;;;;;7.50;5.60;;;;;;;-128.00;-1.00;-1.00;97960;295;1003768;-33
2023/03/19 12:32:42;;;;;;;5.70;4.00;;;;;;;-128.00;-1.00;-1.00;97926;295;1003296;-30
2023/03/19 12:35:11;;;;;;;6.30;4.50;;;;;;;-128.00;-1.00;-1.00;97808;295;1084670;-31
2023/03/19 12:37:50;;;;;;;6.30;4.70;;;;;;;-128.00;-1.00;-1.00;97956;295;1003370;-38
2023/03/19 12:40:35;;;;;;;5.40;4.40;;;;;;;-128.00;-1.00;-1.00;97873;295;1003222;-35
2023/03/19 12:43:05;;;;;;;6.80;4.80;;;;;;;-128.00;-1.00;-1.00;97917;295;1002842;-34
2023/03/19 12:45:37;;;;;;;7.90;5.00;;;;;;;-128.00;-1.00;-1.00;98101;295;1003407;-30
2023/03/19 12:48:07;;;;;;;15.00;6.70;;;;;;;-128.00;-1.00;-1.00;96813;294;1004811;-31
2023/03/19 12:50:36;;;;;;;21.20;7.80;;;;;;;-128.00;-1.00;-1.00;57125;283;7504954;-35
2023/03/19 12:53:04;;;;;;;6.50;5.70;;;;;;;-128.00;-1.00;-1.00;97525;294;1003880;-35
2023/03/19 12:55:40;;;;;;;7.10;5.80;;;;;;;-128.00;-1.00;-1.00;75375;294;7503669;-35
2023/03/19 12:58:24;;;;;;;10.80;7.90;;;;;;;-128.00;-1.00;-1.00;18489;294;7504962;-32
2023/03/19 13:00:58;;;;;;;11.30;7.50;;;;;;;-128.00;-1.00;-1.00;18466;347;7504249;-31
2023/03/19 13:03:30;;;;;;;7.00;5.60;;;;;;;-128.00;-1.00;-1.00;18464;335;7505945;-31
2023/03/19 13:05:59;;;;;;;16.00;8.60;;;;;;;-128.00;-1.00;-1.00;18492;294;7504852;-35
2023/03/19 13:08:43;;;;;;;16.20;9.20;;;;;;;-128.00;-1.00;-1.00;18461;306;7506061;-35
2023/03/19 13:11:11;;;;;;;16.20;9.20;;;;;;;-128.00;-1.00;-1.00;21129;295;7504433;-31
2023/03/19 13:13:45;;;;;;;11.30;7.20;;;;;;;-128.00;-1.00;-1.00;76412;295;7504236;-34
2023/03/19 13:16:35;;;;;;;13.60;11.20;;;;;;;-128.00;-1.00;-1.00;97787;283;1004050;-37
2023/03/19 13:19:34;;;;;;;20.40;12.60;;;;;;;-128.00;-1.00;-1.00;97849;294;1003306;-34
2023/03/19 13:22:03;;;;;;;20.40;8.30;;;;;;;-128.00;-1.00;-1.00;98072;283;1003721;-36
2023/03/19 13:24:31;;;;;;;8.80;6.70;;;;;;;-128.00;-1.00;-1.00;97954;294;1002984;-37
2023/03/19 13:26:58;;;;;;;10.40;6.20;;;;;;;-128.00;-1.00;-1.00;97168;294;1004043;-32
2023/03/19 13:29:25;;;;;;;7.00;5.70;;;;;;;-128.00;-1.00;-1.00;93879;284;3384444;-35
2023/03/19 13:32:05;;;;;;;13.10;9.00;;;;;;;-128.00;-1.00;-1.00;66840;294;4347647;-35
2023/03/19 13:34:33;;;;;;;18.60;9.30;;;;;;;-128.00;-1.00;-1.00;40572;295;7505247;-36
2023/03/19 13:37:07;;;;;;;25.50;15.60;;;;;;;-128.00;-1.00;-1.00;97738;284;1002809;-30
2023/03/19 13:39:33;;;;;;;15.70;11.20;;;;;;;-128.00;-1.00;-1.00;97892;295;1002697;-34